Terminal Aerodrome Forecast
Issued by NWS

Home | Current Version | Previous Version | Text Only | Print | Product List | Glossary On
Versions: 1 2 3 4 5 6 7 8 9 10 11 12 13
000
FTUS44 KOUN 271145
TAFWWR
TAF
KWWR 271145Z 2712/2812 17013KT P6SM SCT080
     FM271600 21015G25KT P6SM SCT250
     FM280100 20012KT P6SM SCT250=

USA.gov is the U.S. government's official web portal to all federal, state and local government web resources and services.